• Join FlightAware (Why Join?)
  • Login
  • US Flag 
03:10AM EDT


 

Airport Tracker/Info


-or-


 

Live Flight TrackerFlight Track Log ✈ EJA831 ✈ 02-May-2014 ✈ KPOC - KSJC

Flight Track Log - Related Links

Times and Time Zones

All times are in EDT time to prevent confusion due to time zone crossing. See the EJA831 flight status page for this flight to view local times or setup timezone preferences in your user account.

Time Position Orientation Groundspeed Altitude Reporting Facility
EDT Latitude Longitude Course Direction KTS MPH feet Rate Location/Type
07:31PM 34.0886 -117.8067 166° South 151 174 28,000  Level Los Angeles Center
07:31PM 34.0667 -117.8000 166° South 194 223 4,300 -6,780 Descending Southern California TRACON
07:34PM 34.0739 -117.7508 80° East 215 247 7,000 1,320 Climbing Los Angeles Center
07:35PM 34.1178 -117.8186 308° West 248 285 9,100 2,460 Climbing Los Angeles Center
07:36PM 34.1761 -117.9178 305° West 303 349 12,100 2,640 Climbing Los Angeles Center
07:37PM 34.2297 -118.0075 306° West 327 376 14,700 2,640 Climbing Los Angeles Center
07:38PM 34.2803 -118.0989 304° West 329 379 17,600 2,760 Climbing Los Angeles Center
07:39PM 34.3197 -118.1981 296° West 329 379 20,500 2,580 Climbing Los Angeles Center
07:40PM 34.3606 -118.2989 296° West 332 382 23,000 2,580 Climbing Los Angeles Center
07:41PM 34.4206 -118.4144 302° West 341 392 25,900 2,340 Climbing Los Angeles Center
07:42PM 34.4886 -118.5006 314° West 355 409 27,900 960 Climbing Los Angeles Center
07:43PM 34.5628 -118.5931 314° West 382 440 28,000  Climbing Los Angeles Center
07:44PM 34.6411 -118.6931 314° West 407 468 28,000  Level Los Angeles Center
07:45PM 34.7208 -118.7931 314° West 413 475 28,000  Level Los Angeles Center
07:46PM 34.8186 -118.9167 314° West 421 484 28,000  Level Los Angeles Center
07:47PM 34.8967 -119.0136 314° West 419 482 28,000  Level Los Angeles Center
07:48PM 34.9781 -119.1131 315° West 414 476 28,000  Level Los Angeles Center
07:49PM 35.0578 -119.2167 313° West 416 479 28,000  Level Los Angeles Center
07:50PM 35.1381 -119.3186 314° West 417 480 28,000  Level Los Angeles Center
07:51PM 35.2200 -119.4558 306° West 421 484 28,000  Level Los Angeles Center
07:52PM 35.2814 -119.5761 302° West 418 481 28,000  Level Los Angeles Center
07:54PM 35.3414 -119.6950 302° West 413 475 28,000  Level Los Angeles Center
07:55PM 35.4014 -119.8178 301° West 419 482 28,000  Level Los Angeles Center
07:56PM 35.4603 -119.9361 301° West 411 473 28,000  Level Los Angeles Center
07:57PM 35.5317 -120.0811 301° West 414 476 28,000  Level Los Angeles Center
07:58PM 35.5858 -120.1908 301° West 415 478 28,000  Level Los Angeles Center
07:59PM 35.6450 -120.3114 301° West 415 478 28,000  Level Los Angeles Center
07:59PM 35.6842 -120.3931 301° West 417 480 28,000  Level Oakland Center
08:00PM 35.7433 -120.5142 301° West 417 480 28,000  Level Oakland Center
08:01PM 35.8014 -120.6361 300° West 417 480 28,000  Level Oakland Center
08:02PM 35.8606 -120.7567 301° West 416 479 28,000  Level Oakland Center
08:03PM 35.9189 -120.8781 301° West 415 478 28,000 -540 Level Oakland Center
08:04PM 36.0078 -120.9669 321° Northwest 410 472 26,900 -1,320 Descending Oakland Center
08:05PM 36.1122 -121.0733 321° Northwest 409 471 25,400 -1,440 Descending Oakland Center
08:06PM 36.1969 -121.1586 321° Northwest 396 456 24,000 -1,320 Descending Oakland Center
08:07PM 36.2817 -121.2417 322° Northwest 391 450 22,700 -1,260 Descending Oakland Center
08:08PM 36.3633 -121.3267 320° Northwest 387 445 21,500 -1,560 Descending Oakland Center
08:09PM 36.4444 -121.4083 321° Northwest 380 437 19,600 -1,860 Descending Oakland Center
08:10PM 36.5336 -121.4661 332° Northwest 366 421 17,700 -1,920 Descending Oakland Center
08:12PM 36.6381 -121.4847 352° North 375 432 15,700 -2,100 Descending Oakland Center
08:13PM 36.7561 -121.5089 351° North 360 414 13,400 -1,980 Descending Oakland Center
08:14PM 36.8350 -121.5264 350° North 351 404 11,700 -2,040 Descending Oakland Center
08:15PM 36.9414 -121.5489 350° North 326 375 9,300 -1,860 Descending Oakland Center
08:16PM 37.0203 -121.5642 351° North 298 343 8,000 -1,380 Descending Oakland Center
08:17PM 37.0869 -121.5864 345° North 285 328 6,500 -1,500 Descending Oakland Center
08:18PM 37.1442 -121.6661 312° West 278 320 5,000 -1,020 Descending Oakland Center
08:19PM 37.1944 -121.7336 313° West 273 314 4,400 -1,080 Descending Oakland Center
08:20PM 37.2442 -121.8003 313° West 267 307 2,800 -1,320 Descending Oakland Center
08:21PM 37.2892 -121.8553 316° Northwest 242 278 1,700 -1,080 Descending Oakland Center
08:22PM 37.3328 -121.9014 320° Northwest 189 217 600 -840 Descending Oakland Center
08:23PM 37.3556 -121.9239 322° Northwest 135 155 100 -540 Descending Oakland Center
08:25PM 37.3500 -121.9167 North  Level FlightAware Approximate